Time;durP1;ratioP1;P1;durP2;ratioP2;P2;SDS_P1;SDS_P2;PMS_P1;PMS_P2;Temp;Humidity;BMP_temperature;BMP_pressure;BME280_temperature;BME280_humidity;BME280_pressure;Samples;Min_cycle;Max_cycle;Signal;HPM_P1;HPM_P2
2022/06/04 00:00:11;;;;;;;0.70;0.70;;;;;;;;;;5109815;28;20430;-79
2022/06/04 00:02:39;;;;;;;0.70;0.60;;;;;;;;;;5097646;28;20527;-80
2022/06/04 00:05:07;;;;;;;0.70;0.60;;;;;;;;;;5095850;28;20483;-79
2022/06/04 00:07:33;;;;;;;0.70;0.70;;;;;;;;;;5095838;28;20560;-79
2022/06/04 00:15:34;;;;;;;0.70;0.70;;;;;;;;;;5103748;28;20429;-79
2022/06/04 00:18:00;;;;;;;0.70;0.60;;;;;;;;;;5108912;28;20449;-79
2022/06/04 00:20:27;;;;;;;0.80;0.70;;;;;;;;;;5098199;28;20470;-79
2022/06/04 00:22:58;;;;;;;0.70;0.60;;;;;;;;;;5079024;28;20497;-79
2022/06/04 00:25:25;;;;;;;0.70;0.60;;;;;;;;;;5090946;28;20464;-78
2022/06/04 00:27:55;;;;;;;0.70;0.60;;;;;;;;;;5098280;28;20501;-79
2022/06/04 00:30:22;;;;;;;0.80;0.70;;;;;;;;;;5078595;28;20450;-80
2022/06/04 00:32:49;;;;;;;0.70;0.63;;;;;;;;;;5079001;28;20430;-81
2022/06/04 00:35:16;;;;;;;0.70;0.70;;;;;;;;;;5094788;28;20545;-80
2022/06/04 00:37:43;;;;;;;0.70;0.60;;;;;;;;;;5078381;28;20469;-80
2022/06/04 00:40:13;;;;;;;0.70;0.60;;;;;;;;;;5080304;28;20808;-80
2022/06/04 00:42:40;;;;;;;0.70;0.60;;;;;;;;;;5113174;28;20533;-80
2022/06/04 00:45:31;;;;;;;0.70;0.60;;;;;;;;;;5115313;28;20461;-80
2022/06/04 00:48:01;;;;;;;0.70;0.60;;;;;;;;;;5024724;28;20535;-80
2022/06/04 00:50:29;;;;;;;0.70;0.60;;;;;;;;;;5116222;27;20966;-80
2022/06/04 00:52:59;;;;;;;0.70;0.60;;;;;;;;;;5133535;27;20544;-80
2022/06/04 00:55:29;;;;;;;0.80;0.70;;;;;;;;;;5115018;28;20434;-80
2022/06/04 00:58:06;;;;;;;0.70;0.70;;;;;;;;;;5094552;28;20501;-80
2022/06/04 01:00:35;;;;;;;0.70;0.60;;;;;;;;;;5094467;28;20502;-80
2022/06/04 01:03:14;;;;;;;0.70;0.60;;;;;;;;;;5095282;28;20486;-79
2022/06/04 01:05:51;;;;;;;0.70;0.60;;;;;;;;;;5093869;28;20468;-80
2022/06/04 01:08:27;;;;;;;0.70;0.60;;;;;;;;;;5109876;28;20439;-79
2022/06/04 01:11:03;;;;;;;0.80;0.70;;;;;;;;;;5115849;28;20439;-80
2022/06/04 01:13:40;;;;;;;0.70;0.60;;;;;;;;;;5089069;28;20461;-80
2022/06/04 01:16:11;;;;;;;0.70;0.60;;;;;;;;;;5111936;28;20443;-79
2022/06/04 01:18:48;;;;;;;0.70;0.60;;;;;;;;;;5108555;28;20539;-79
2022/06/04 01:21:19;;;;;;;0.80;0.70;;;;;;;;;;5093868;28;20561;-79
2022/06/04 01:24:08;;;;;;;0.70;0.70;;;;;;;;;;5097257;28;20437;-79
2022/06/04 01:26:42;;;;;;;0.70;0.60;;;;;;;;;;5097359;28;20566;-79
2022/06/04 01:29:12;;;;;;;0.70;0.60;;;;;;;;;;5103951;28;20453;-79
2022/06/04 01:31:42;;;;;;;0.70;0.60;;;;;;;;;;5094986;28;20417;-80
2022/06/04 01:34:11;;;;;;;0.80;0.70;;;;;;;;;;5113501;28;20442;-80
2022/06/04 01:36:41;;;;;;;0.70;0.60;;;;;;;;;;5114173;28;21064;-79
2022/06/04 01:39:14;;;;;;;0.70;0.60;;;;;;;;;;5108554;28;21031;-79
2022/06/04 01:41:43;;;;;;;0.73;0.67;;;;;;;;;;5102473;28;20856;-78
2022/06/04 01:44:13;;;;;;;0.70;0.63;;;;;;;;;;5098752;28;20534;-80
2022/06/04 01:46:40;;;;;;;0.70;0.60;;;;;;;;;;5113306;28;20592;-79
2022/06/04 01:49:10;;;;;;;0.70;0.60;;;;;;;;;;5103485;28;20488;-79
2022/06/04 01:51:37;;;;;;;0.70;0.60;;;;;;;;;;5115230;28;20493;-79
2022/06/04 01:54:06;;;;;;;0.77;0.70;;;;;;;;;;5117485;28;20466;-79
2022/06/04 01:56:36;;;;;;;0.70;0.60;;;;;;;;;;5106819;28;20473;-79
2022/06/04 01:59:08;;;;;;;0.70;0.60;;;;;;;;;;5093110;28;20429;-79
2022/06/04 02:01:37;;;;;;;0.70;0.60;;;;;;;;;;5092979;28;20456;-79
2022/06/04 02:04:05;;;;;;;0.70;0.60;;;;;;;;;;5076972;28;20443;-79
2022/06/04 02:06:35;;;;;;;0.70;0.70;;;;;;;;;;5076799;28;20527;-79
2022/06/04 02:09:05;;;;;;;0.70;0.60;;;;;;;;;;5093518;28;20489;-79
2022/06/04 02:11:32;;;;;;;0.70;0.60;;;;;;;;;;5077746;28;20478;-79
2022/06/04 02:14:03;;;;;;;0.70;0.60;;;;;;;;;;5076657;28;20471;-79
2022/06/04 02:16:33;;;;;;;0.70;0.60;;;;;;;;;;5099860;28;20471;-79
2022/06/04 02:19:01;;;;;;;0.70;0.60;;;;;;;;;;5106485;28;20475;-79
2022/06/04 02:21:28;;;;;;;0.70;0.60;;;;;;;;;;5093038;28;20474;-79
2022/06/04 02:23:55;;;;;;;0.80;0.70;;;;;;;;;;5110387;28;20483;-79
2022/06/04 02:26:23;;;;;;;0.80;0.70;;;;;;;;;;5093507;28;20566;-79
2022/06/04 02:28:51;;;;;;;0.80;0.63;;;;;;;;;;5100048;28;20452;-79
2022/06/04 02:31:23;;;;;;;0.70;0.60;;;;;;;;;;5080085;28;20509;-79
2022/06/04 02:33:57;;;;;;;0.70;0.70;;;;;;;;;;5092951;28;20467;-79
2022/06/04 02:36:28;;;;;;;0.70;0.60;;;;;;;;;;5091826;28;20505;-79
2022/06/04 02:38:59;;;;;;;0.70;0.60;;;;;;;;;;5093731;28;20410;-80
2022/06/04 02:41:28;;;;;;;0.70;0.60;;;;;;;;;;5093587;28;20443;-79
2022/06/04 02:43:59;;;;;;;0.70;0.60;;;;;;;;;;5092073;28;20457;-79
2022/06/04 02:46:28;;;;;;;0.70;0.60;;;;;;;;;;5085146;28;20484;-79
2022/06/04 02:49:00;;;;;;;0.70;0.60;;;;;;;;;;5093889;28;20422;-79
2022/06/04 02:51:29;;;;;;;0.70;0.60;;;;;;;;;;5075834;28;20498;-79
2022/06/04 02:54:00;;;;;;;0.70;0.60;;;;;;;;;;5092060;28;20481;-79
2022/06/04 02:56:30;;;;;;;0.70;0.60;;;;;;;;;;5076977;28;20448;-79
2022/06/04 02:58:59;;;;;;;0.70;0.60;;;;;;;;;;5092979;28;20428;-79
2022/06/04 03:01:26;;;;;;;0.70;0.60;;;;;;;;;;5092482;28;20543;-79
2022/06/04 03:03:53;;;;;;;0.70;0.60;;;;;;;;;;5098338;28;20441;-80
2022/06/04 03:06:23;;;;;;;0.70;0.60;;;;;;;;;;5112665;28;20468;-80
2022/06/04 03:08:51;;;;;;;0.70;0.60;;;;;;;;;;5112964;28;21005;-79
2022/06/04 03:11:18;;;;;;;0.70;0.60;;;;;;;;;;5089963;28;20519;-79
2022/06/04 03:13:45;;;;;;;0.70;0.60;;;;;;;;;;5091848;28;20488;-79
2022/06/04 03:16:13;;;;;;;0.70;0.60;;;;;;;;;;5103823;28;20931;-80
2022/06/04 03:18:41;;;;;;;0.70;0.60;;;;;;;;;;5098350;28;20817;-79
2022/06/04 03:21:07;;;;;;;0.70;0.60;;;;;;;;;;5133512;28;20436;-81
2022/06/04 03:23:36;;;;;;;0.70;0.60;;;;;;;;;;5107874;28;20522;-79
2022/06/04 03:26:03;;;;;;;0.70;0.60;;;;;;;;;;5110694;28;20497;-79
2022/06/04 03:28:31;;;;;;;0.70;0.60;;;;;;;;;;5098335;28;20963;-80
2022/06/04 03:30:58;;;;;;;0.70;0.60;;;;;;;;;;5120295;27;20461;-80
2022/06/04 03:33:24;;;;;;;0.70;0.70;;;;;;;;;;5093498;28;20461;-80
2022/06/04 03:35:51;;;;;;;0.70;0.70;;;;;;;;;;5100353;28;20898;-79
2022/06/04 03:38:18;;;;;;;0.70;0.60;;;;;;;;;;5077604;28;20946;-80
2022/06/04 03:40:47;;;;;;;0.70;0.70;;;;;;;;;;5089748;28;20882;-79
2022/06/04 03:43:14;;;;;;;0.70;0.60;;;;;;;;;;5105424;28;20443;-79
2022/06/04 03:45:41;;;;;;;0.70;0.60;;;;;;;;;;5091867;28;20434;-79
2022/06/04 03:48:08;;;;;;;0.80;0.70;;;;;;;;;;5099021;28;20466;-80
2022/06/04 03:50:35;;;;;;;0.70;0.63;;;;;;;;;;5111714;28;20439;-78
2022/06/04 03:53:02;;;;;;;0.70;0.60;;;;;;;;;;5095220;28;20445;-79
2022/06/04 03:55:29;;;;;;;0.80;0.70;;;;;;;;;;5091975;28;20861;-79
2022/06/04 03:57:57;;;;;;;0.70;0.60;;;;;;;;;;5074790;28;20441;-79
2022/06/04 04:00:29;;;;;;;0.70;0.60;;;;;;;;;;5112104;28;20464;-79
2022/06/04 04:02:57;;;;;;;0.70;0.60;;;;;;;;;;5111522;28;20489;-79
2022/06/04 04:05:25;;;;;;;0.70;0.60;;;;;;;;;;5095224;28;20456;-79
2022/06/04 04:07:54;;;;;;;0.70;0.70;;;;;;;;;;5110451;28;20463;-80
2022/06/04 04:10:23;;;;;;;0.70;0.60;;;;;;;;;;5112183;28;20453;-79
2022/06/04 04:12:49;;;;;;;0.70;0.60;;;;;;;;;;5112832;28;20530;-79
2022/06/04 04:15:18;;;;;;;0.70;0.60;;;;;;;;;;5112776;28;20438;-79
2022/06/04 04:17:46;;;;;;;0.80;0.70;;;;;;;;;;5097202;28;20541;-79
2022/06/04 04:20:15;;;;;;;0.70;0.60;;;;;;;;;;5094237;28;20463;-79
2022/06/04 04:22:42;;;;;;;0.70;0.60;;;;;;;;;;5114549;28;20469;-79
2022/06/04 04:25:10;;;;;;;0.70;0.70;;;;;;;;;;5115535;28;20453;-79
2022/06/04 04:27:39;;;;;;;0.70;0.60;;;;;;;;;;5115967;28;20919;-79
2022/06/04 04:30:07;;;;;;;0.70;0.60;;;;;;;;;;5116452;28;20428;-79
2022/06/04 04:32:35;;;;;;;0.70;0.60;;;;;;;;;;5107480;28;20460;-79
2022/06/04 04:35:04;;;;;;;0.70;0.60;;;;;;;;;;5096652;28;20428;-79
2022/06/04 04:37:31;;;;;;;0.70;0.70;;;;;;;;;;5101875;28;20451;-79
2022/06/04 04:40:01;;;;;;;0.70;0.60;;;;;;;;;;5099151;28;20774;-79
2022/06/04 04:42:27;;;;;;;0.70;0.60;;;;;;;;;;5095177;28;20845;-79
2022/06/04 04:44:54;;;;;;;0.70;0.60;;;;;;;;;;5095384;28;20982;-80
2022/06/04 04:47:20;;;;;;;0.70;0.60;;;;;;;;;;5077844;28;20904;-79
2022/06/04 04:49:50;;;;;;;0.80;0.70;;;;;;;;;;5114293;28;20929;-80
2022/06/04 04:52:17;;;;;;;0.70;0.70;;;;;;;;;;5114548;28;20464;-80
2022/06/04 04:54:44;;;;;;;0.70;0.60;;;;;;;;;;5115361;28;20455;-80
2022/06/04 04:57:11;;;;;;;0.70;0.60;;;;;;;;;;5115161;28;20485;-79
2022/06/04 04:59:38;;;;;;;0.70;0.60;;;;;;;;;;5097379;28;20448;-79
2022/06/04 05:02:05;;;;;;;0.70;0.60;;;;;;;;;;5096380;28;20441;-79
2022/06/04 05:04:31;;;;;;;0.70;0.70;;;;;;;;;;5087231;28;20448;-79
2022/06/04 05:06:59;;;;;;;0.70;0.60;;;;;;;;;;5094784;28;20489;-79
2022/06/04 05:09:26;;;;;;;0.70;0.70;;;;;;;;;;5087243;28;20445;-80
2022/06/04 05:11:53;;;;;;;0.70;0.60;;;;;;;;;;5113494;28;20430;-79
2022/06/04 05:14:20;;;;;;;0.70;0.70;;;;;;;;;;5115682;28;20478;-79
2022/06/04 05:16:49;;;;;;;0.70;0.60;;;;;;;;;;5097363;28;21030;-80
2022/06/04 05:19:15;;;;;;;0.70;0.60;;;;;;;;;;5112751;28;20458;-80
2022/06/04 05:21:50;;;;;;;0.70;0.60;;;;;;;;;;5114785;28;20449;-79
2022/06/04 05:24:19;;;;;;;0.70;0.60;;;;;;;;;;5084724;28;20443;-79
2022/06/04 05:26:47;;;;;;;0.70;0.60;;;;;;;;;;5094450;28;20452;-79
2022/06/04 05:29:13;;;;;;;0.70;0.60;;;;;;;;;;5095930;28;20429;-80
2022/06/04 05:31:40;;;;;;;0.70;0.70;;;;;;;;;;5111498;28;20515;-78
2022/06/04 05:34:09;;;;;;;0.70;0.60;;;;;;;;;;5116542;28;20463;-78
2022/06/04 05:36:36;;;;;;;0.70;0.60;;;;;;;;;;5104704;28;20510;-79
2022/06/04 05:39:03;;;;;;;0.70;0.63;;;;;;;;;;5115288;28;20434;-79
2022/06/04 05:41:33;;;;;;;0.70;0.70;;;;;;;;;;5114524;28;20482;-80
2022/06/04 05:44:00;;;;;;;0.70;0.70;;;;;;;;;;5114528;28;20442;-80
2022/06/04 05:46:32;;;;;;;0.80;0.70;;;;;;;;;;5113451;28;20547;-80
2022/06/04 05:49:01;;;;;;;0.70;0.60;;;;;;;;;;5098323;28;20458;-79
2022/06/04 05:51:29;;;;;;;0.70;0.60;;;;;;;;;;5092934;28;21181;-79
2022/06/04 05:53:57;;;;;;;0.70;0.60;;;;;;;;;;5076848;28;20494;-79
2022/06/04 05:56:29;;;;;;;0.70;0.60;;;;;;;;;;5110389;28;20445;-80
2022/06/04 05:58:58;;;;;;;0.80;0.70;;;;;;;;;;5095371;28;20425;-80
2022/06/04 06:01:26;;;;;;;0.70;0.60;;;;;;;;;;5103356;28;20450;-80
2022/06/04 06:03:56;;;;;;;0.70;0.70;;;;;;;;;;5093467;28;20437;-80
2022/06/04 06:06:25;;;;;;;0.70;0.60;;;;;;;;;;5093228;28;20475;-79
2022/06/04 06:08:58;;;;;;;0.70;0.60;;;;;;;;;;5092704;28;20543;-79
2022/06/04 06:11:25;;;;;;;0.70;0.60;;;;;;;;;;5093522;28;20465;-79
2022/06/04 06:13:55;;;;;;;0.70;0.60;;;;;;;;;;5094560;28;20947;-79
2022/06/04 06:16:24;;;;;;;0.70;0.60;;;;;;;;;;5079017;28;20856;-79
2022/06/04 06:18:51;;;;;;;0.70;0.60;;;;;;;;;;5097583;28;20900;-80
2022/06/04 06:21:21;;;;;;;0.70;0.70;;;;;;;;;;5092620;28;20450;-80
2022/06/04 06:23:48;;;;;;;0.70;0.70;;;;;;;;;;5092841;28;20843;-80
2022/06/04 06:26:16;;;;;;;0.70;0.60;;;;;;;;;;5096715;28;20478;-79
2022/06/04 06:28:43;;;;;;;0.70;0.60;;;;;;;;;;5113392;28;20826;-78
2022/06/04 06:31:11;;;;;;;0.70;0.60;;;;;;;;;;5091291;28;20442;-78
2022/06/04 06:33:41;;;;;;;0.70;0.60;;;;;;;;;;5096807;28;20511;-80
2022/06/04 06:36:10;;;;;;;0.70;0.60;;;;;;;;;;5115533;28;20463;-79
2022/06/04 06:38:37;;;;;;;0.80;0.70;;;;;;;;;;5113204;28;20412;-80
2022/06/04 06:41:05;;;;;;;0.73;0.63;;;;;;;;;;5109135;28;20439;-79
2022/06/04 06:43:36;;;;;;;0.80;0.70;;;;;;;;;;5113182;28;20529;-80
2022/06/04 06:46:04;;;;;;;0.80;0.70;;;;;;;;;;5111574;28;21016;-79
2022/06/04 06:48:32;;;;;;;0.70;0.60;;;;;;;;;;5094806;27;20460;-79
2022/06/04 06:51:06;;;;;;;0.70;0.60;;;;;;;;;;5115090;27;20808;-79
2022/06/04 06:53:35;;;;;;;0.80;0.70;;;;;;;;;;5101650;28;20749;-79
2022/06/04 06:56:09;;;;;;;0.70;0.60;;;;;;;;;;5074034;28;20599;-79
2022/06/04 06:58:35;;;;;;;0.80;0.70;;;;;;;;;;5074106;28;20491;-79
2022/06/04 07:01:02;;;;;;;0.80;0.70;;;;;;;;;;5115182;27;20437;-81
2022/06/04 07:03:29;;;;;;;0.80;0.70;;;;;;;;;;5103623;28;20448;-81
2022/06/04 07:05:57;;;;;;;0.70;0.60;;;;;;;;;;5098541;28;20464;-80
2022/06/04 07:08:26;;;;;;;0.70;0.67;;;;;;;;;;5101672;28;20547;-80
2022/06/04 07:10:53;;;;;;;0.80;0.70;;;;;;;;;;5106748;28;20478;-79
2022/06/04 07:13:20;;;;;;;0.70;0.70;;;;;;;;;;5100424;28;20986;-79
2022/06/04 07:15:47;;;;;;;0.80;0.70;;;;;;;;;;5091689;28;20511;-80
2022/06/04 07:18:15;;;;;;;0.80;0.70;;;;;;;;;;5093695;28;20422;-79
2022/06/04 07:20:42;;;;;;;0.80;0.70;;;;;;;;;;5100837;28;20482;-80
2022/06/04 07:23:09;;;;;;;0.80;0.70;;;;;;;;;;5095328;28;20944;-79
2022/06/04 07:25:40;;;;;;;0.70;0.70;;;;;;;;;;5105315;28;20442;-79
2022/06/04 07:28:06;;;;;;;0.73;0.60;;;;;;;;;;5107561;28;20472;-80
2022/06/04 07:30:33;;;;;;;0.70;0.60;;;;;;;;;;5112672;28;20542;-79
2022/06/04 07:33:00;;;;;;;0.70;0.60;;;;;;;;;;5112318;28;20437;-78
2022/06/04 07:35:27;;;;;;;0.80;0.80;;;;;;;;;;5106219;28;20498;-79
2022/06/04 07:37:54;;;;;;;0.70;0.60;;;;;;;;;;5094775;28;20445;-79
2022/06/04 07:40:21;;;;;;;0.80;0.70;;;;;;;;;;5111865;28;20527;-79
2022/06/04 07:42:50;;;;;;;0.70;0.60;;;;;;;;;;5104670;28;20453;-80
2022/06/04 07:45:18;;;;;;;0.70;0.70;;;;;;;;;;5092598;28;20418;-80
2022/06/04 07:47:45;;;;;;;0.73;0.63;;;;;;;;;;5091875;28;20779;-80
2022/06/04 07:50:12;;;;;;;0.80;0.73;;;;;;;;;;5093453;28;20837;-79
2022/06/04 07:52:39;;;;;;;0.70;0.60;;;;;;;;;;5111829;28;20435;-80
2022/06/04 07:55:07;;;;;;;0.70;0.60;;;;;;;;;;5112215;28;20457;-81
2022/06/04 07:57:34;;;;;;;0.80;0.70;;;;;;;;;;5115129;28;20412;-82
2022/06/04 08:00:03;;;;;;;0.70;0.60;;;;;;;;;;5099096;28;20416;-81
2022/06/04 08:02:42;;;;;;;0.70;0.60;;;;;;;;;;5095565;28;20430;-81
2022/06/04 08:05:09;;;;;;;0.70;0.60;;;;;;;;;;5096654;28;20417;-80
2022/06/04 08:07:37;;;;;;;0.70;0.60;;;;;;;;;;5095587;28;20423;-82
2022/06/04 08:10:05;;;;;;;0.80;0.80;;;;;;;;;;5095082;28;20770;-81
2022/06/04 08:12:33;;;;;;;0.70;0.60;;;;;;;;;;5090072;28;20423;-80
2022/06/04 08:15:00;;;;;;;0.70;0.60;;;;;;;;;;5078768;28;20453;-81
2022/06/04 08:17:31;;;;;;;0.70;0.60;;;;;;;;;;5079630;28;20428;-81
2022/06/04 08:19:59;;;;;;;0.70;0.60;;;;;;;;;;5079144;28;20427;-81
2022/06/04 08:22:27;;;;;;;0.70;0.60;;;;;;;;;;5096935;28;20425;-81
2022/06/04 08:24:53;;;;;;;0.70;0.60;;;;;;;;;;5095488;28;20437;-81
2022/06/04 08:27:20;;;;;;;0.70;0.60;;;;;;;;;;5095861;28;20404;-80
2022/06/04 08:29:47;;;;;;;0.70;0.63;;;;;;;;;;5095011;28;20796;-80
2022/06/04 08:32:25;;;;;;;0.70;0.60;;;;;;;;;;5095447;28;20741;-79
2022/06/04 08:34:53;;;;;;;0.70;0.60;;;;;;;;;;5114824;28;20480;-79
2022/06/04 08:37:20;;;;;;;0.70;0.60;;;;;;;;;;5114503;28;20424;-80
2022/06/04 08:39:47;;;;;;;0.70;0.60;;;;;;;;;;5114990;28;20500;-80
2022/06/04 08:42:22;;;;;;;0.80;0.70;;;;;;;;;;5101976;28;20434;-79
2022/06/04 08:44:50;;;;;;;0.80;0.70;;;;;;;;;;5077333;28;20495;-79
2022/06/04 08:47:21;;;;;;;0.80;0.70;;;;;;;;;;5094938;28;20414;-80
2022/06/04 08:49:51;;;;;;;0.70;0.60;;;;;;;;;;5095185;28;20876;-80
2022/06/04 08:52:20;;;;;;;0.70;0.60;;;;;;;;;;5095457;28;20539;-81
2022/06/04 08:57:40;;;;;;;0.70;0.60;;;;;;;;;;5115467;28;20453;-81
2022/06/04 09:00:10;;;;;;;0.70;0.60;;;;;;;;;;5094779;28;20515;-82
2022/06/04 09:02:45;;;;;;;0.70;0.60;;;;;;;;;;5114332;28;20425;-80
2022/06/04 09:05:19;;;;;;;0.70;0.60;;;;;;;;;;5097438;28;20969;-80
2022/06/04 09:07:52;;;;;;;0.70;0.60;;;;;;;;;;5090956;28;20536;-81
2022/06/04 09:10:22;;;;;;;0.70;0.60;;;;;;;;;;5100025;28;20431;-82
2022/06/04 09:12:52;;;;;;;0.70;0.60;;;;;;;;;;5111042;28;20449;-81
2022/06/04 09:15:24;;;;;;;0.70;0.60;;;;;;;;;;5114888;28;20425;-80
2022/06/04 09:17:51;;;;;;;0.70;0.60;;;;;;;;;;5115034;28;20524;-81
2022/06/04 09:20:24;;;;;;;0.70;0.60;;;;;;;;;;5112185;28;20450;-79
2022/06/04 09:22:56;;;;;;;0.73;0.60;;;;;;;;;;5104821;28;20815;-79
2022/06/04 09:25:25;;;;;;;0.70;0.60;;;;;;;;;;5116491;28;20421;-79
2022/06/04 09:27:58;;;;;;;0.70;0.60;;;;;;;;;;5097407;28;20890;-80
2022/06/04 09:30:27;;;;;;;0.70;0.60;;;;;;;;;;5097744;28;20834;-80
2022/06/04 09:33:11;;;;;;;0.70;0.60;;;;;;;;;;5114496;28;20410;-80
2022/06/04 09:35:40;;;;;;;0.80;0.70;;;;;;;;;;5114469;28;20448;-80
2022/06/04 09:38:21;;;;;;;0.70;0.60;;;;;;;;;;5090778;28;21041;-81
2022/06/04 09:40:55;;;;;;;0.70;0.60;;;;;;;;;;5114395;28;20846;-80
2022/06/04 09:43:22;;;;;;;0.70;0.60;;;;;;;;;;5110346;28;20461;-77
2022/06/04 09:46:06;;;;;;;0.70;0.60;;;;;;;;;;5096139;28;20442;-78
2022/06/04 09:48:34;;;;;;;0.70;0.60;;;;;;;;;;5088658;27;20566;-77
2022/06/04 09:51:03;;;;;;;0.70;0.60;;;;;;;;;;5105523;28;20457;-77
2022/06/04 09:53:33;;;;;;;0.70;0.60;;;;;;;;;;5105349;28;20513;-78
2022/06/04 09:56:06;;;;;;;0.70;0.60;;;;;;;;;;5097628;28;20478;-78
2022/06/04 09:58:35;;;;;;;0.70;0.60;;;;;;;;;;5104758;28;20495;-80
2022/06/04 10:01:06;;;;;;;0.70;0.60;;;;;;;;;;5094651;28;20445;-79
2022/06/04 10:03:37;;;;;;;0.70;0.60;;;;;;;;;;5105391;28;20921;-80
2022/06/04 10:06:04;;;;;;;0.70;0.57;;;;;;;;;;5097357;28;20474;-78
2022/06/04 10:11:22;;;;;;;0.70;0.60;;;;;;;;;;5096562;28;20537;-79
2022/06/04 10:13:52;;;;;;;0.70;0.60;;;;;;;;;;5105454;28;20455;-80
2022/06/04 10:16:19;;;;;;;0.80;0.70;;;;;;;;;;5110234;28;20494;-80
2022/06/04 10:18:57;;;;;;;0.70;0.60;;;;;;;;;;5094593;28;20545;-80
2022/06/04 10:21:26;;;;;;;0.70;0.60;;;;;;;;;;5094302;28;20460;-79
2022/06/04 10:23:58;;;;;;;0.70;0.60;;;;;;;;;;5113163;28;20453;-79
2022/06/04 10:26:41;;;;;;;0.80;0.70;;;;;;;;;;5094458;28;20851;-78
2022/06/04 10:29:17;;;;;;;0.70;0.60;;;;;;;;;;5114104;28;20461;-79
2022/06/04 10:31:49;;;;;;;0.70;0.60;;;;;;;;;;5118285;28;20456;-79
2022/06/04 10:34:22;;;;;;;0.70;0.50;;;;;;;;;;5099843;28;20442;-81
2022/06/04 10:36:51;;;;;;;0.70;0.50;;;;;;;;;;5094075;28;20449;-78
2022/06/04 10:39:29;;;;;;;0.70;0.50;;;;;;;;;;5096106;28;21015;-80
2022/06/04 10:42:01;;;;;;;0.70;0.50;;;;;;;;;;5112366;28;20441;-77
2022/06/04 10:44:32;;;;;;;0.70;0.50;;;;;;;;;;5098030;28;20434;-80
2022/06/04 10:47:06;;;;;;;0.70;0.50;;;;;;;;;;5093194;28;20488;-78
2022/06/04 10:49:47;;;;;;;0.70;0.50;;;;;;;;;;5104988;28;20821;-80
2022/06/04 10:52:19;;;;;;;0.70;0.50;;;;;;;;;;5109345;28;20457;-80
2022/06/04 10:54:58;;;;;;;0.70;0.50;;;;;;;;;;5108942;28;20497;-78
2022/06/04 10:57:27;;;;;;;0.70;0.50;;;;;;;;;;5101370;28;20808;-79
2022/06/04 10:59:56;;;;;;;0.70;0.50;;;;;;;;;;5075695;28;20844;-78
2022/06/04 11:02:25;;;;;;;0.70;0.50;;;;;;;;;;5092974;28;20445;-79
2022/06/04 11:04:54;;;;;;;0.70;0.50;;;;;;;;;;5096157;28;20800;-79
2022/06/04 11:07:32;;;;;;;0.70;0.50;;;;;;;;;;5114618;28;20457;-80
2022/06/04 11:10:03;;;;;;;0.70;0.50;;;;;;;;;;5102652;28;20462;-80
2022/06/04 11:12:36;;;;;;;0.70;0.50;;;;;;;;;;5094622;28;21010;-78
2022/06/04 11:15:06;;;;;;;0.70;0.50;;;;;;;;;;5108126;28;20949;-78
2022/06/04 11:17:37;;;;;;;0.70;0.50;;;;;;;;;;5113375;28;20972;-79
2022/06/04 11:20:09;;;;;;;0.70;0.50;;;;;;;;;;5096543;28;20450;-79
2022/06/04 11:22:37;;;;;;;0.70;0.50;;;;;;;;;;5092357;28;20453;-78
2022/06/04 11:25:14;;;;;;;0.70;0.50;;;;;;;;;;5093870;28;20844;-79
2022/06/04 11:27:45;;;;;;;0.70;0.50;;;;;;;;;;5093388;28;20444;-78
2022/06/04 11:30:14;;;;;;;0.70;0.50;;;;;;;;;;5075289;28;20466;-79
2022/06/04 11:32:46;;;;;;;0.70;0.50;;;;;;;;;;5103014;28;21168;-78
2022/06/04 11:35:19;;;;;;;0.70;0.60;;;;;;;;;;5116781;28;20492;-79
2022/06/04 11:37:58;;;;;;;0.70;0.50;;;;;;;;;;5114863;27;20498;-80
2022/06/04 11:40:30;;;;;;;0.80;0.50;;;;;;;;;;5115182;28;20489;-80
2022/06/04 11:42:59;;;;;;;0.80;0.50;;;;;;;;;;5098531;28;20934;-80
2022/06/04 11:45:44;;;;;;;0.80;0.50;;;;;;;;;;5111386;28;20501;-79
2022/06/04 11:48:19;;;;;;;0.80;0.50;;;;;;;;;;5111433;28;20803;-79
2022/06/04 11:50:48;;;;;;;0.80;0.50;;;;;;;;;;5095565;28;20493;-79
2022/06/04 11:53:27;;;;;;;0.80;0.50;;;;;;;;;;5096454;28;20433;-80
2022/06/04 11:55:58;;;;;;;0.80;0.50;;;;;;;;;;5097334;28;20402;-79
2022/06/04 11:58:37;;;;;;;0.80;0.50;;;;;;;;;;5107531;28;20479;-79
2022/06/04 12:01:28;;;;;;;0.80;0.50;;;;;;;;;;5105979;28;20442;-80
2022/06/04 12:03:58;;;;;;;0.80;0.50;;;;;;;;;;5092768;28;20533;-80
2022/06/04 12:06:30;;;;;;;0.80;0.50;;;;;;;;;;5116528;28;20485;-80
2022/06/04 12:09:01;;;;;;;0.80;0.57;;;;;;;;;;5116478;28;20413;-81
2022/06/04 12:11:34;;;;;;;0.80;0.50;;;;;;;;;;5117101;28;20410;-81
2022/06/04 12:14:04;;;;;;;0.80;0.50;;;;;;;;;;5113866;28;20841;-80
2022/06/04 12:16:37;;;;;;;0.80;0.50;;;;;;;;;;5112501;28;20457;-80
2022/06/04 12:24:16;;;;;;;0.80;0.50;;;;;;;;;;5102933;28;20535;-81
2022/06/04 12:24:59;;;;;;;0.80;0.50;;;;;;;;;;5096762;28;20438;-81
2022/06/04 12:27:33;;;;;;;0.77;0.50;;;;;;;;;;5094690;28;20434;-80
2022/06/04 12:30:01;;;;;;;0.80;0.50;;;;;;;;;;5100427;28;20470;-80
2022/06/04 12:32:28;;;;;;;0.80;0.50;;;;;;;;;;5107654;28;20518;-80
2022/06/04 12:35:04;;;;;;;0.80;0.50;;;;;;;;;;5096046;28;20422;-81
2022/06/04 12:37:32;;;;;;;0.80;0.60;;;;;;;;;;5096704;28;20453;-81
2022/06/04 12:40:12;;;;;;;0.80;0.50;;;;;;;;;;5095551;28;20518;-81
2022/06/04 12:42:45;;;;;;;0.80;0.50;;;;;;;;;;5095992;28;20446;-80
2022/06/04 12:45:34;;;;;;;0.80;0.50;;;;;;;;;;5113392;28;20501;-81
2022/06/04 12:48:01;;;;;;;0.77;0.50;;;;;;;;;;5115432;28;20426;-81
2022/06/04 12:50:30;;;;;;;0.80;0.50;;;;;;;;;;5084649;28;20508;-81
2022/06/04 12:52:59;;;;;;;0.80;0.50;;;;;;;;;;5115569;28;20444;-80
2022/06/04 12:55:28;;;;;;;0.80;0.50;;;;;;;;;;5116037;28;20418;-81
2022/06/04 12:57:58;;;;;;;0.80;0.50;;;;;;;;;;5105632;28;20503;-79
2022/06/04 13:00:31;;;;;;;0.80;0.50;;;;;;;;;;5098770;28;20441;-80
2022/06/04 13:03:28;;;;;;;0.80;0.50;;;;;;;;;;5115314;28;20405;-80
2022/06/04 13:05:57;;;;;;;0.80;0.50;;;;;;;;;;5016416;28;20547;-80
2022/06/04 13:08:30;;;;;;;0.80;0.50;;;;;;;;;;5098809;27;20539;-80
2022/06/04 13:11:01;;;;;;;0.80;0.50;;;;;;;;;;5105812;27;20557;-79
2022/06/04 13:13:35;;;;;;;0.80;0.50;;;;;;;;;;5097217;27;20473;-79
2022/06/04 13:16:04;;;;;;;0.80;0.50;;;;;;;;;;5112208;27;20490;-78
2022/06/04 13:18:39;;;;;;;0.80;0.50;;;;;;;;;;5104265;27;20443;-79
2022/06/04 13:21:11;;;;;;;0.80;0.50;;;;;;;;;;5092446;27;20820;-79
2022/06/04 13:23:41;;;;;;;0.80;0.50;;;;;;;;;;5118992;27;20444;-80
2022/06/04 13:26:23;;;;;;;0.80;0.53;;;;;;;;;;5120769;27;20528;-80
2022/06/04 13:28:51;;;;;;;0.80;0.50;;;;;;;;;;5118846;27;20493;-79
2022/06/04 13:31:20;;;;;;;0.80;0.50;;;;;;;;;;5115534;27;20476;-80
2022/06/04 13:33:48;;;;;;;0.80;0.50;;;;;;;;;;5107821;27;20453;-82
2022/06/04 13:36:16;;;;;;;0.80;0.50;;;;;;;;;;5094947;28;20485;-79
2022/06/04 13:38:44;;;;;;;0.80;0.50;;;;;;;;;;5078747;28;20540;-79
2022/06/04 13:41:16;;;;;;;0.80;0.50;;;;;;;;;;5095791;27;20430;-79
2022/06/04 13:43:44;;;;;;;0.80;0.50;;;;;;;;;;5115080;27;20480;-79
2022/06/04 13:46:17;;;;;;;0.80;0.50;;;;;;;;;;5095789;28;20446;-81
2022/06/04 13:48:48;;;;;;;0.80;0.50;;;;;;;;;;5080800;28;20453;-81
2022/06/04 13:51:17;;;;;;;0.80;0.50;;;;;;;;;;5113175;28;20529;-80
2022/06/04 13:53:47;;;;;;;0.80;0.50;;;;;;;;;;5095090;28;20550;-80
2022/06/04 13:56:15;;;;;;;0.90;0.50;;;;;;;;;;5093442;28;20484;-79
2022/06/04 13:58:44;;;;;;;0.90;0.50;;;;;;;;;;5077540;28;20438;-79
2022/06/04 14:01:12;;;;;;;0.90;0.50;;;;;;;;;;5097855;28;20454;-79
2022/06/04 14:03:44;;;;;;;0.80;0.50;;;;;;;;;;5094743;28;20467;-79
2022/06/04 14:06:19;;;;;;;0.80;0.50;;;;;;;;;;5093562;28;20461;-79
2022/06/04 14:08:47;;;;;;;0.80;0.50;;;;;;;;;;5077084;28;20439;-79
2022/06/04 14:11:24;;;;;;;0.80;0.50;;;;;;;;;;5093569;28;20474;-78
2022/06/04 14:14:15;;;;;;;0.80;0.50;;;;;;;;;;5094181;28;20438;-78
2022/06/04 14:16:49;;;;;;;0.80;0.50;;;;;;;;;;5087174;28;20442;-78
2022/06/04 14:19:32;;;;;;;0.80;0.50;;;;;;;;;;5114205;28;20477;-78
2022/06/04 14:22:04;;;;;;;0.80;0.50;;;;;;;;;;5110061;28;20465;-79
2022/06/04 14:24:44;;;;;;;0.80;0.50;;;;;;;;;;5097813;28;20486;-78
2022/06/04 14:27:17;;;;;;;0.80;0.50;;;;;;;;;;5112683;28;20826;-79
2022/06/04 14:29:48;;;;;;;0.80;0.50;;;;;;;;;;5109775;28;20445;-79
2022/06/04 14:32:22;;;;;;;0.87;0.50;;;;;;;;;;5093260;28;20446;-80
2022/06/04 14:34:49;;;;;;;0.90;0.50;;;;;;;;;;5093541;28;20425;-78
2022/06/04 14:37:22;;;;;;;0.90;0.50;;;;;;;;;;5093297;28;20557;-79
2022/06/04 14:39:49;;;;;;;0.90;0.50;;;;;;;;;;5094715;28;20463;-79
2022/06/04 14:42:26;;;;;;;0.90;0.50;;;;;;;;;;5105914;28;20452;-78
2022/06/04 14:45:10;;;;;;;0.90;0.50;;;;;;;;;;5107177;28;20440;-78
2022/06/04 14:47:58;;;;;;;0.90;0.50;;;;;;;;;;5092819;28;20784;-79
2022/06/04 14:50:34;;;;;;;0.90;0.50;;;;;;;;;;5090115;27;20555;-78
2022/06/04 14:53:03;;;;;;;0.80;0.50;;;;;;;;;;5114665;27;20786;-78
2022/06/04 14:55:34;;;;;;;0.80;0.50;;;;;;;;;;5113747;28;20433;-78
2022/06/04 14:58:20;;;;;;;0.80;0.50;;;;;;;;;;5096373;28;20482;-78
2022/06/04 15:01:02;;;;;;;0.80;0.50;;;;;;;;;;5112987;28;20497;-78
2022/06/04 15:03:36;;;;;;;0.70;0.50;;;;;;;;;;5096887;28;20946;-79
2022/06/04 15:06:04;;;;;;;0.70;0.50;;;;;;;;;;5104429;28;20458;-78
2022/06/04 15:08:44;;;;;;;0.70;0.50;;;;;;;;;;5101086;28;20957;-77
2022/06/04 15:11:24;;;;;;;0.70;0.50;;;;;;;;;;5093747;28;20450;-78
2022/06/04 15:13:54;;;;;;;0.70;0.60;;;;;;;;;;5132422;28;20420;-78
2022/06/04 15:16:23;;;;;;;0.70;0.50;;;;;;;;;;5093843;28;20426;-77